Time;durP1;ratioP1;P1;durP2;ratioP2;P2;SDS_P1;SDS_P2;PMS_P1;PMS_P2;Temp;Humidity;BMP_temperature;BMP_pressure;BME280_temperature;BME280_humidity;BME280_pressure;Samples;Min_cycle;Max_cycle;Signal;HPM_P1;HPM_P2
2021/12/18 00:00:58;;;;;;;3.53;1.65;;;27.70;99.90;;;;;;4995213;28;20045;-65
2021/12/18 00:03:26;;;;;;;3.80;1.50;;;27.80;99.90;;;;;;4994715;28;20043;-65
2021/12/18 00:05:53;;;;;;;5.75;1.50;;;27.80;99.90;;;;;;4994819;28;20030;-64
2021/12/18 00:08:21;;;;;;;4.80;1.30;;;28.00;99.90;;;;;;4991915;28;20026;-64
2021/12/18 00:10:49;;;;;;;3.17;1.42;;;28.20;99.90;;;;;;4994897;28;20492;-65
2021/12/18 00:13:16;;;;;;;4.45;1.48;;;28.30;99.90;;;;;;4994819;28;20030;-65
2021/12/18 00:15:44;;;;;;;3.00;1.00;;;28.30;99.90;;;;;;4993563;28;20057;-65
2021/12/18 00:18:12;;;;;;;5.13;1.13;;;28.40;99.90;;;;;;4993116;28;20491;-64
2021/12/18 00:20:39;;;;;;;2.55;1.10;;;28.40;99.90;;;;;;4994270;28;20030;-65
2021/12/18 00:23:07;;;;;;;7.63;1.63;;;28.50;99.90;;;;;;4993999;28;20026;-65
2021/12/18 00:25:35;;;;;;;3.50;0.95;;;28.70;99.90;;;;;;4992243;28;20094;-65
2021/12/18 00:28:03;;;;;;;4.97;1.20;;;28.90;99.90;;;;;;4992938;28;20054;-66
2021/12/18 00:30:30;;;;;;;4.55;1.38;;;29.10;99.90;;;;;;4994311;28;20030;-65
2021/12/18 00:32:58;;;;;;;3.58;0.95;;;29.30;99.90;;;;;;4994478;28;20026;-65
2021/12/18 00:35:26;;;;;;;4.10;1.17;;;29.60;99.90;;;;;;4991007;28;20030;-65
2021/12/18 00:37:54;;;;;;;5.47;1.40;;;29.90;99.90;;;;;;4994832;28;20415;-65
2021/12/18 00:40:25;;;;;;;3.78;1.00;;;30.00;99.90;;;;;;4994737;28;20026;-65
2021/12/18 00:43:02;;;;;;;5.43;1.33;;;29.90;99.90;;;;;;4994192;28;20025;-64
2021/12/18 00:45:30;;;;;;;2.47;1.20;;;30.00;99.90;;;;;;4992638;28;20035;-67
2021/12/18 00:47:58;;;;;;;3.47;1.33;;;30.00;99.90;;;;;;4992652;28;20105;-67
2021/12/18 00:50:31;;;;;;;3.70;1.40;;;30.30;99.90;;;;;;4993378;28;20447;-67
2021/12/18 00:52:58;;;;;;;5.30;1.50;;;30.60;99.90;;;;;;4992578;28;20411;-67
2021/12/18 00:55:26;;;;;;;2.40;1.10;;;30.60;99.90;;;;;;4993267;28;20038;-67
2021/12/18 00:57:54;;;;;;;1.95;1.20;;;30.90;99.90;;;;;;4993218;28;20050;-67
2021/12/18 01:00:24;;;;;;;2.33;0.85;;;31.00;99.90;;;;;;4993130;28;20030;-67
2021/12/18 01:02:57;;;;;;;7.65;1.10;;;31.30;99.90;;;;;;4992237;28;20054;-67
2021/12/18 01:05:26;;;;;;;3.10;1.67;;;31.20;99.90;;;;;;4993152;28;20030;-66
2021/12/18 01:07:58;;;;;;;6.40;1.38;;;31.10;99.90;;;;;;4992630;28;20031;-66
2021/12/18 01:13:18;;;;;;;7.18;1.80;;;31.50;99.90;;;;;;4992979;28;20061;-65
2021/12/18 01:15:50;;;;;;;4.00;1.27;;;31.70;99.90;;;;;;4993632;28;20080;-66
2021/12/18 01:23:50;;;;;;;3.30;1.20;;;32.20;99.90;;;;;;4992544;28;20049;-65
2021/12/18 01:26:18;;;;;;;5.15;1.17;;;32.30;99.90;;;;;;4992720;28;20057;-63
2021/12/18 01:28:46;;;;;;;3.65;1.17;;;32.40;99.90;;;;;;4993761;28;20029;-63
2021/12/18 01:31:14;;;;;;;5.18;1.30;;;32.40;99.90;;;;;;4991064;28;20050;-66
2021/12/18 01:33:41;;;;;;;4.50;1.40;;;32.50;99.90;;;;;;4993464;28;20022;-65
2021/12/18 01:36:10;;;;;;;2.28;0.88;;;32.60;99.90;;;;;;4993860;28;20049;-63
2021/12/18 01:38:37;;;;;;;2.25;1.08;;;32.70;99.60;;;;;;4993812;28;20093;-65
2021/12/18 01:41:05;;;;;;;2.88;1.08;;;32.80;99.90;;;;;;4993823;28;20037;-64
2021/12/18 01:44:21;;;;;;;1.80;1.17;;;33.00;99.30;;;;;;4993740;28;20031;-63
2021/12/18 01:46:39;;;;;;;1.52;0.88;;;33.10;97.70;;;;;;4993871;28;20031;-63
2021/12/18 01:54:57;;;;;;;2.20;0.90;;;33.30;95.20;;;;;;4973103;28;20027;-64
2021/12/18 01:57:24;;;;;;;3.90;0.93;;;33.30;95.00;;;;;;4993502;28;20491;-63
2021/12/18 01:59:52;;;;;;;1.58;0.73;;;33.60;94.40;;;;;;4997815;28;20097;-64
2021/12/18 02:02:20;;;;;;;2.15;0.80;;;33.70;93.70;;;;;;4997508;28;20460;-64
2021/12/18 02:04:48;;;;;;;2.65;1.05;;;33.90;93.50;;;;;;4997226;28;20038;-65
2021/12/18 02:07:16;;;;;;;2.40;0.57;;;33.90;92.00;;;;;;4997613;28;20049;-64
2021/12/18 02:10:04;;;;;;;5.93;0.80;;;34.00;92.10;;;;;;4997574;28;20053;-64
2021/12/18 02:12:43;;;;;;;5.15;1.35;;;34.10;91.70;;;;;;4997481;28;20026;-64
2021/12/18 02:20:47;;;;;;;2.40;0.80;;;34.10;89.80;;;;;;4997715;28;20101;-63
2021/12/18 02:23:16;;;;;;;1.77;0.63;;;34.10;90.70;;;;;;4997310;28;20030;-64
2021/12/18 02:25:47;;;;;;;2.38;0.85;;;34.20;90.30;;;;;;4997002;28;20034;-64
2021/12/18 02:28:23;;;;;;;2.33;0.80;;;34.20;88.70;;;;;;4997309;28;20404;-64
2021/12/18 02:30:52;;;;;;;1.58;0.70;;;34.40;88.80;;;;;;4997016;28;20038;-65
2021/12/18 02:33:21;;;;;;;3.67;1.00;;;34.50;88.80;;;;;;4997066;28;20121;-64
2021/12/18 02:35:51;;;;;;;1.83;0.77;;;34.80;87.90;;;;;;4997156;28;20026;-64
2021/12/18 02:38:23;;;;;;;3.38;1.00;;;35.00;85.90;;;;;;4996984;28;20034;-64
2021/12/18 02:41:01;;;;;;;2.60;0.70;;;35.10;82.00;;;;;;4996997;28;20031;-65
2021/12/18 02:43:38;;;;;;;4.45;0.98;;;35.10;81.90;;;;;;4997179;28;20031;-64
2021/12/18 02:46:08;;;;;;;4.25;1.08;;;35.10;83.80;;;;;;4997227;28;20438;-64
2021/12/18 02:48:40;;;;;;;3.72;1.10;;;35.10;82.50;;;;;;4996937;28;20018;-65
2021/12/18 02:51:11;;;;;;;3.95;0.90;;;35.40;84.00;;;;;;4996974;28;20058;-64
2021/12/18 02:53:41;;;;;;;2.55;0.85;;;35.50;80.10;;;;;;4996986;28;20483;-65
2021/12/18 02:56:10;;;;;;;1.70;0.70;;;35.50;82.70;;;;;;4997079;28;20041;-63
2021/12/18 02:58:40;;;;;;;2.83;0.60;;;35.60;82.00;;;;;;4996775;28;20026;-63
2021/12/18 03:01:10;;;;;;;3.33;0.98;;;35.60;79.10;;;;;;4996848;28;20022;-64
2021/12/18 03:03:40;;;;;;;2.92;0.88;;;35.60;79.40;;;;;;4996595;28;20507;-64
2021/12/18 03:09:17;;;;;;;2.75;0.80;;;35.80;76.50;;;;;;4996472;28;20514;-64
2021/12/18 03:22:54;;;;;;;7.28;1.30;;;35.10;78.30;;;;;;4996549;28;20423;-64
2021/12/18 03:25:26;;;;;;;2.47;0.75;;;35.20;78.70;;;;;;4996236;28;20042;-64
2021/12/18 03:27:54;;;;;;;5.68;1.15;;;35.60;79.20;;;;;;4996521;28;20033;-65
2021/12/18 03:30:22;;;;;;;2.60;0.90;;;36.10;81.00;;;;;;4996485;28;20029;-64
2021/12/18 03:32:50;;;;;;;4.45;0.80;;;36.30;76.40;;;;;;4996287;28;20116;-64
2021/12/18 03:35:18;;;;;;;1.42;0.70;;;36.30;74.00;;;;;;4996291;28;20488;-64
2021/12/18 03:37:46;;;;;;;3.17;1.08;;;36.20;74.40;;;;;;4995985;28;20034;-65
2021/12/18 03:40:17;;;;;;;1.42;0.90;;;36.00;74.20;;;;;;4995986;28;20054;-65
2021/12/18 03:42:44;;;;;;;4.95;0.68;;;36.00;75.50;;;;;;4996117;28;20022;-64
2021/12/18 03:45:12;;;;;;;2.47;0.77;;;36.00;74.00;;;;;;4996373;28;20034;-66
2021/12/18 03:47:40;;;;;;;3.42;0.88;;;36.00;74.20;;;;;;4995974;28;20033;-66
2021/12/18 03:50:08;;;;;;;2.65;0.68;;;36.10;73.30;;;;;;4996078;28;20034;-64
2021/12/18 03:52:35;;;;;;;2.75;0.68;;;36.30;73.10;;;;;;4995995;28;20033;-64
2021/12/18 03:55:04;;;;;;;1.80;0.60;;;36.40;73.00;;;;;;4995862;28;20476;-64
2021/12/18 03:57:31;;;;;;;3.13;0.93;;;36.30;72.90;;;;;;4995639;28;20061;-64
2021/12/18 03:59:59;;;;;;;1.60;0.90;;;36.10;73.40;;;;;;4995817;28;20411;-65
2021/12/18 04:02:26;;;;;;;2.20;0.50;;;36.00;74.50;;;;;;4995472;28;20058;-64
2021/12/18 04:04:53;;;;;;;3.15;0.98;;;35.80;73.00;;;;;;4995736;28;20041;-66
2021/12/18 04:07:21;;;;;;;2.67;0.90;;;35.60;72.10;;;;;;4995735;28;20039;-65
2021/12/18 04:09:48;;;;;;;2.08;0.60;;;35.20;73.70;;;;;;4995404;28;20033;-64
2021/12/18 04:12:17;;;;;;;1.25;0.60;;;34.90;73.50;;;;;;4995618;28;20027;-64
2021/12/18 04:14:44;;;;;;;2.45;0.70;;;34.60;74.70;;;;;;4995523;28;20037;-64
2021/12/18 04:17:12;;;;;;;2.22;0.75;;;34.40;73.40;;;;;;4995207;28;20023;-64
2021/12/18 04:19:39;;;;;;;2.38;0.80;;;34.30;75.30;;;;;;4994228;28;20113;-64
2021/12/18 04:22:06;;;;;;;1.80;0.65;;;34.20;75.40;;;;;;4995245;28;20109;-64
2021/12/18 04:24:34;;;;;;;3.53;0.70;;;34.40;75.20;;;;;;4995146;28;20045;-65
2021/12/18 04:27:01;;;;;;;1.55;0.55;;;34.50;74.30;;;;;;4995205;28;20379;-64
2021/12/18 04:29:29;;;;;;;1.80;0.70;;;34.80;73.50;;;;;;4995051;28;20030;-64
2021/12/18 04:31:56;;;;;;;4.75;0.77;;;34.80;75.10;;;;;;4995257;28;20032;-64
2021/12/18 04:34:23;;;;;;;3.00;0.88;;;34.50;74.80;;;;;;4995104;28;20069;-64
2021/12/18 04:36:51;;;;;;;5.20;0.70;;;34.60;71.80;;;;;;4994981;28;20034;-64
2021/12/18 04:39:31;;;;;;;1.27;0.60;;;34.90;74.40;;;;;;5111360;27;20312;-69
2021/12/18 04:41:59;;;;;;;1.88;0.55;;;35.40;74.00;;;;;;5111107;28;20515;-70
2021/12/18 04:44:26;;;;;;;2.45;0.63;;;35.70;72.60;;;;;;5111327;28;20366;-70
2021/12/18 04:46:54;;;;;;;2.75;0.77;;;36.00;71.60;;;;;;5111170;28;20023;-70
2021/12/18 04:49:21;;;;;;;0.90;0.60;;;36.20;67.70;;;;;;5111171;28;20103;-70
2021/12/18 04:51:49;;;;;;;5.00;0.50;;;36.40;69.40;;;;;;5111054;28;20020;-70
2021/12/18 04:54:16;;;;;;;5.78;0.85;;;36.50;69.80;;;;;;5111108;28;20046;-70
2021/12/18 04:56:44;;;;;;;2.92;0.77;;;36.50;66.80;;;;;;5110893;28;20028;-70
2021/12/18 04:59:12;;;;;;;1.08;0.70;;;36.50;66.20;;;;;;5110766;28;20023;-70
2021/12/18 05:01:40;;;;;;;3.83;0.63;;;36.40;68.30;;;;;;5110886;28;20042;-70
2021/12/18 05:04:14;;;;;;;1.98;0.63;;;36.30;64.40;;;;;;5110722;28;20054;-70
2021/12/18 05:06:45;;;;;;;0.95;0.45;;;36.10;67.40;;;;;;5110913;28;20052;-70
2021/12/18 05:09:16;;;;;;;2.42;0.60;;;36.00;67.10;;;;;;5110981;28;20027;-70
2021/12/18 05:11:44;;;;;;;2.20;0.77;;;35.80;66.70;;;;;;5110872;28;20056;-69
2021/12/18 05:14:12;;;;;;;2.08;1.02;;;35.60;66.60;;;;;;5110584;28;20023;-70
2021/12/18 05:16:39;;;;;;;1.50;0.85;;;35.30;67.90;;;;;;5110505;28;20027;-69
2021/12/18 05:19:07;;;;;;;3.70;0.50;;;35.00;66.40;;;;;;5110427;28;20039;-70
2021/12/18 05:21:35;;;;;;;0.95;0.30;;;34.90;67.80;;;;;;5110691;28;20016;-69
2021/12/18 05:24:03;;;;;;;1.50;0.80;;;34.70;68.40;;;;;;5092207;28;20028;-70
2021/12/18 05:26:30;;;;;;;2.50;0.57;;;34.50;69.30;;;;;;5111177;28;20376;-70
2021/12/18 05:28:57;;;;;;;2.50;0.60;;;34.40;69.80;;;;;;5110180;28;20027;-70
2021/12/18 05:31:24;;;;;;;1.77;0.52;;;34.30;69.80;;;;;;5110338;28;20028;-70
2021/12/18 05:33:57;;;;;;;1.58;0.50;;;34.30;70.90;;;;;;5110333;28;20030;-70
2021/12/18 05:36:34;;;;;;;3.50;1.10;;;34.40;71.40;;;;;;5110615;28;20473;-71
2021/12/18 05:39:07;;;;;;;1.92;0.60;;;34.60;70.30;;;;;;5109792;28;20056;-71
2021/12/18 05:41:35;;;;;;;3.75;0.70;;;34.90;69.90;;;;;;5110064;28;20038;-68
2021/12/18 05:44:04;;;;;;;1.02;0.60;;;35.10;71.80;;;;;;5110184;28;20031;-68
2021/12/18 05:46:32;;;;;;;4.63;0.82;;;35.30;70.00;;;;;;5110068;28;20110;-68
2021/12/18 05:49:00;;;;;;;2.78;0.40;;;35.30;68.60;;;;;;5106345;28;20024;-69
2021/12/18 05:51:27;;;;;;;1.45;0.60;;;35.40;68.80;;;;;;5096452;28;20081;-69
2021/12/18 05:53:54;;;;;;;5.30;0.63;;;35.30;66.80;;;;;;5096402;28;20035;-70
2021/12/18 05:56:22;;;;;;;4.53;0.75;;;35.30;67.10;;;;;;5096144;28;20036;-69
2021/12/18 05:58:49;;;;;;;3.38;0.52;;;35.20;66.60;;;;;;5096050;28;20036;-69
2021/12/18 06:01:19;;;;;;;2.50;0.80;;;35.10;67.30;;;;;;5096025;28;20024;-69
2021/12/18 06:03:46;;;;;;;2.72;0.57;;;34.80;67.90;;;;;;5096230;28;20372;-70
2021/12/18 06:06:14;;;;;;;1.95;0.60;;;34.60;67.80;;;;;;5096406;28;20020;-69
2021/12/18 06:08:44;;;;;;;3.25;0.47;;;34.60;68.70;;;;;;5095922;28;20032;-69
2021/12/18 06:11:15;;;;;;;3.65;0.73;;;34.60;66.30;;;;;;5095989;28;20020;-69
2021/12/18 06:13:50;;;;;;;0.98;0.50;;;34.80;67.90;;;;;;5096052;28;20099;-69
2021/12/18 06:16:20;;;;;;;1.70;0.57;;;35.00;67.50;;;;;;5095974;28;20023;-70
2021/12/18 06:18:50;;;;;;;1.58;0.57;;;35.10;66.50;;;;;;5095791;28;20035;-69
2021/12/18 06:21:19;;;;;;;4.38;1.08;;;35.10;66.40;;;;;;5095823;28;20036;-70
2021/12/18 06:23:49;;;;;;;3.42;1.02;;;35.20;67.50;;;;;;5095797;28;20024;-70
2021/12/18 06:26:17;;;;;;;2.05;0.50;;;35.20;65.80;;;;;;5077711;28;20020;-69
2021/12/18 06:28:44;;;;;;;4.75;0.52;;;35.00;64.80;;;;;;5095652;28;20020;-69
2021/12/18 06:31:12;;;;;;;1.90;0.52;;;35.10;66.10;;;;;;5095507;28;20028;-68
2021/12/18 06:33:39;;;;;;;1.38;0.70;;;35.40;65.00;;;;;;5095672;28;20031;-69
2021/12/18 06:36:07;;;;;;;1.50;0.50;;;35.50;65.60;;;;;;5095774;28;20028;-69
2021/12/18 06:38:37;;;;;;;3.08;0.77;;;35.70;64.70;;;;;;5076891;28;20127;-71
2021/12/18 06:41:04;;;;;;;1.38;0.43;;;36.10;64.80;;;;;;5095449;28;20108;-69
2021/12/18 06:43:31;;;;;;;9.40;0.77;;;36.80;64.50;;;;;;5077265;28;20048;-69
2021/12/18 06:45:58;;;;;;;1.27;0.55;;;37.00;62.50;;;;;;5095352;28;20103;-68
2021/12/18 06:48:26;;;;;;;1.52;0.45;;;37.30;62.80;;;;;;5095468;28;20484;-70
2021/12/18 06:50:53;;;;;;;1.40;0.52;;;37.60;61.60;;;;;;5095403;28;20027;-69
2021/12/18 06:53:20;;;;;;;4.07;0.40;;;37.90;61.20;;;;;;5095293;28;20507;-69
2021/12/18 06:55:48;;;;;;;1.55;0.43;;;37.80;59.90;;;;;;5095218;28;20031;-70
2021/12/18 06:58:15;;;;;;;1.25;0.60;;;37.70;59.10;;;;;;5094811;28;20044;-68
2021/12/18 07:00:43;;;;;;;1.95;0.75;;;37.30;61.10;;;;;;5076138;28;20376;-69
2021/12/18 07:03:11;;;;;;;1.48;0.57;;;36.70;61.60;;;;;;5094668;28;20052;-69
2021/12/18 07:05:39;;;;;;;0.68;0.40;;;36.40;62.60;;;;;;5094965;28;20145;-70
2021/12/18 07:08:06;;;;;;;2.42;0.70;;;36.00;63.50;;;;;;5094985;28;20027;-71
2021/12/18 07:10:35;;;;;;;2.97;0.70;;;35.60;63.60;;;;;;5094733;28;20048;-68
2021/12/18 07:13:03;;;;;;;0.90;0.40;;;35.30;63.40;;;;;;5094782;28;20028;-69
2021/12/18 07:15:30;;;;;;;2.75;0.85;;;35.10;64.10;;;;;;5094616;28;20016;-69
2021/12/18 07:17:58;;;;;;;1.98;0.50;;;35.00;65.00;;;;;;5094540;28;20486;-69
2021/12/18 07:20:27;;;;;;;3.70;0.40;;;35.00;64.90;;;;;;5094617;28;20028;-69
2021/12/18 07:22:55;;;;;;;4.45;0.63;;;34.90;66.10;;;;;;5094766;28;20150;-69
2021/12/18 07:25:22;;;;;;;2.72;0.88;;;34.90;65.70;;;;;;5094611;28;20017;-69
2021/12/18 07:27:50;;;;;;;2.42;0.60;;;34.80;65.30;;;;;;5094338;28;20032;-70
2021/12/18 07:30:17;;;;;;;1.58;0.70;;;34.70;66.20;;;;;;5094428;28;20035;-70
2021/12/18 07:32:45;;;;;;;1.50;0.65;;;34.70;68.30;;;;;;5094223;28;20065;-69
2021/12/18 07:35:13;;;;;;;7.25;1.00;;;35.20;67.60;;;;;;5094381;28;20099;-69
2021/12/18 07:37:40;;;;;;;1.92;0.70;;;35.80;67.00;;;;;;5093831;28;20044;-68
2021/12/18 07:40:09;;;;;;;7.97;1.20;;;35.90;67.90;;;;;;5094277;28;20051;-68
2021/12/18 07:42:37;;;;;;;2.75;0.95;;;36.40;66.90;;;;;;5094256;28;20107;-69
2021/12/18 07:45:05;;;;;;;3.58;0.90;;;36.70;66.90;;;;;;5094301;28;20020;-69
2021/12/18 07:47:33;;;;;;;3.40;0.80;;;36.50;65.90;;;;;;5094178;28;20020;-68
2021/12/18 07:50:02;;;;;;;1.98;0.50;;;36.70;65.30;;;;;;5094287;28;20032;-69
2021/12/18 07:52:29;;;;;;;4.60;0.77;;;36.40;64.70;;;;;;5093967;28;20047;-69
2021/12/18 07:54:57;;;;;;;2.83;0.90;;;36.10;65.90;;;;;;5094011;28;20035;-69
2021/12/18 07:57:24;;;;;;;1.20;0.65;;;35.40;66.60;;;;;;5093768;28;20093;-69
2021/12/18 07:59:51;;;;;;;2.25;0.85;;;34.80;68.60;;;;;;5093970;28;20031;-69
2021/12/18 08:02:18;;;;;;;6.05;0.90;;;34.30;69.80;;;;;;5093870;28;20073;-69
2021/12/18 08:04:46;;;;;;;3.55;1.08;;;33.80;71.00;;;;;;5094033;28;20107;-69
2021/12/18 08:07:13;;;;;;;3.47;1.30;;;33.50;71.40;;;;;;5093837;28;20028;-70
2021/12/18 08:09:40;;;;;;;3.25;0.80;;;33.30;72.10;;;;;;5094023;28;20024;-70
2021/12/18 08:12:09;;;;;;;2.08;0.73;;;33.00;71.70;;;;;;5093564;28;20099;-70
2021/12/18 08:14:36;;;;;;;1.10;0.70;;;32.80;73.00;;;;;;5093797;28;20024;-69
2021/12/18 08:17:03;;;;;;;1.15;0.60;;;32.70;73.90;;;;;;5093715;28;20423;-70
2021/12/18 08:19:31;;;;;;;2.72;0.70;;;32.50;74.80;;;;;;5093614;28;20036;-69
2021/12/18 08:21:58;;;;;;;1.08;0.70;;;32.30;75.10;;;;;;5075908;28;20024;-69
2021/12/18 08:24:25;;;;;;;1.75;0.82;;;32.10;75.70;;;;;;5093598;28;20030;-70
2021/12/18 08:26:53;;;;;;;1.98;0.80;;;31.90;76.30;;;;;;5093769;28;20031;-69
2021/12/18 08:29:20;;;;;;;2.05;0.68;;;31.80;76.80;;;;;;5093533;28;20024;-69
2021/12/18 08:31:48;;;;;;;3.13;0.77;;;31.70;77.70;;;;;;5093382;28;20148;-69
2021/12/18 08:34:15;;;;;;;6.43;0.85;;;31.50;77.50;;;;;;5093472;28;20028;-69
2021/12/18 08:36:43;;;;;;;2.00;0.90;;;31.50;78.30;;;;;;5093229;28;20017;-69
2021/12/18 08:39:10;;;;;;;2.10;0.95;;;31.30;78.80;;;;;;5093236;28;20485;-69
2021/12/18 08:41:39;;;;;;;4.18;0.88;;;31.30;79.20;;;;;;5093618;28;20039;-69
2021/12/18 08:44:06;;;;;;;3.35;1.10;;;31.20;79.40;;;;;;5093562;28;20017;-69
2021/12/18 08:46:34;;;;;;;2.60;0.80;;;31.10;79.80;;;;;;5093589;28;20034;-69
2021/12/18 08:49:02;;;;;;;3.13;0.75;;;31.00;80.10;;;;;;5093313;28;20012;-69
2021/12/18 08:51:29;;;;;;;10.52;1.10;;;30.90;80.70;;;;;;5093780;28;20031;-70
2021/12/18 08:53:57;;;;;;;1.35;0.50;;;30.80;81.20;;;;;;5093434;28;20020;-70
2021/12/18 08:56:24;;;;;;;2.75;1.17;;;30.70;81.00;;;;;;5093239;28;20047;-69
2021/12/18 08:58:53;;;;;;;6.30;1.20;;;30.60;81.60;;;;;;5092974;28;20032;-70
2021/12/18 09:01:26;;;;;;;4.30;0.82;;;30.60;82.30;;;;;;5093177;28;20043;-69
2021/12/18 09:03:53;;;;;;;1.88;0.90;;;30.50;82.80;;;;;;5093335;28;20436;-69
2021/12/18 09:06:21;;;;;;;2.33;0.75;;;30.40;83.10;;;;;;5093602;28;20024;-69
2021/12/18 09:08:49;;;;;;;1.75;0.98;;;30.30;83.20;;;;;;5093318;28;20047;-69
2021/12/18 09:11:19;;;;;;;2.63;0.82;;;30.20;83.70;;;;;;5092977;28;20436;-69
2021/12/18 09:13:47;;;;;;;1.52;0.65;;;30.20;84.10;;;;;;5092980;28;20081;-69
2021/12/18 09:16:15;;;;;;;8.18;0.80;;;30.10;84.20;;;;;;5092894;28;20048;-69
2021/12/18 09:18:42;;;;;;;1.38;0.77;;;30.10;83.90;;;;;;5092985;28;20036;-70
2021/12/18 09:21:09;;;;;;;1.20;0.60;;;30.00;85.00;;;;;;5092985;28;20032;-69
2021/12/18 09:23:37;;;;;;;4.07;1.05;;;29.90;85.20;;;;;;5092997;28;20497;-70
2021/12/18 09:26:07;;;;;;;2.17;0.95;;;29.90;85.90;;;;;;5096676;28;20043;-69
2021/12/18 09:28:35;;;;;;;1.77;0.95;;;29.80;86.30;;;;;;5096966;28;20484;-70
2021/12/18 09:31:02;;;;;;;3.60;1.30;;;29.70;86.90;;;;;;5078768;28;20024;-67
2021/12/18 09:33:30;;;;;;;1.92;1.00;;;29.60;87.90;;;;;;5096603;28;20504;-68
2021/12/18 09:35:57;;;;;;;3.97;1.20;;;29.50;88.80;;;;;;5096608;28;20366;-68
2021/12/18 09:38:24;;;;;;;1.50;0.70;;;29.40;89.00;;;;;;5096058;28;20145;-69
2021/12/18 09:40:52;;;;;;;4.22;1.10;;;29.40;89.50;;;;;;5096629;28;20023;-69
2021/12/18 09:43:19;;;;;;;3.67;1.23;;;29.30;89.90;;;;;;5096508;28;20431;-70
2021/12/18 09:45:50;;;;;;;4.47;0.85;;;29.30;90.30;;;;;;5096381;28;20052;-70
2021/12/18 09:48:18;;;;;;;3.72;0.88;;;29.20;90.40;;;;;;5078218;28;20031;-69
2021/12/18 09:50:48;;;;;;;2.70;0.90;;;29.20;90.60;;;;;;5096444;28;20029;-69
2021/12/18 09:53:16;;;;;;;5.68;1.08;;;29.10;90.80;;;;;;5096317;28;20384;-70
2021/12/18 09:55:43;;;;;;;6.07;1.30;;;29.10;91.10;;;;;;5096230;28;20469;-69
2021/12/18 09:58:10;;;;;;;4.53;1.20;;;29.10;91.20;;;;;;5096036;28;20040;-69
2021/12/18 10:00:40;;;;;;;2.20;1.13;;;29.10;91.40;;;;;;5096919;28;20031;-69
2021/12/18 10:03:07;;;;;;;4.00;1.05;;;29.00;91.60;;;;;;5078173;28;20069;-69
2021/12/18 10:05:38;;;;;;;2.53;0.77;;;29.00;91.70;;;;;;5078198;28;20031;-69
2021/12/18 10:08:21;;;;;;;2.78;1.33;;;29.00;91.80;;;;;;5096159;28;20529;-71
2021/12/18 10:11:09;;;;;;;1.90;0.88;;;29.00;92.10;;;;;;5096050;28;20031;-69
2021/12/18 10:13:58;;;;;;;3.13;1.35;;;28.90;92.00;;;;;;5096095;28;20073;-69
2021/12/18 10:16:41;;;;;;;;;;;;;;;;;;;;;
2021/12/18 10:19:25;;;;;;;9.32;1.30;;;28.80;92.60;;;;;;5090972;28;20480;-69
2021/12/18 10:22:13;;;;;;;3.28;1.20;;;28.80;93.00;;;;;;5077761;28;20111;-69
2021/12/18 10:24:43;;;;;;;3.05;1.33;;;28.80;93.20;;;;;;5095810;28;20103;-69
2021/12/18 10:27:18;;;;;;;2.88;1.08;;;28.80;93.30;;;;;;5095702;28;20024;-69
2021/12/18 10:29:46;;;;;;;3.20;0.90;;;28.80;93.30;;;;;;5096057;28;20020;-69
2021/12/18 10:32:17;;;;;;;4.20;0.90;;;28.80;93.60;;;;;;5095493;28;20024;-70
2021/12/18 10:34:56;;;;;;;3.25;0.98;;;28.70;93.70;;;;;;5095639;28;20020;-70
2021/12/18 10:37:25;;;;;;;7.05;1.25;;;28.70;94.00;;;;;;5094961;28;20115;-69
2021/12/18 10:39:56;;;;;;;2.47;1.08;;;28.60;94.20;;;;;;5095800;28;20073;-70
2021/12/18 10:42:42;;;;;;;1.92;1.08;;;28.60;94.40;;;;;;5095735;28;20024;-69
2021/12/18 10:45:28;;;;;;;2.00;0.80;;;28.60;94.70;;;;;;5095457;28;20052;-71
2021/12/18 10:48:03;;;;;;;2.25;1.17;;;28.50;94.90;;;;;;5095354;28;20028;-70
2021/12/18 10:50:53;;;;;;;3.03;0.95;;;28.50;95.00;;;;;;5095423;28;20030;-70
2021/12/18 10:53:30;;;;;;;5.72;1.10;;;28.50;95.10;;;;;;5095117;28;20026;-70
2021/12/18 10:56:00;;;;;;;3.65;1.02;;;28.50;95.30;;;;;;5095496;28;20044;-69
2021/12/18 10:58:37;;;;;;;2.50;1.02;;;28.50;95.50;;;;;;5094939;28;20032;-69
2021/12/18 11:01:13;;;;;;;3.35;1.10;;;28.50;95.60;;;;;;5095262;28;20020;-69
2021/12/18 11:03:46;;;;;;;2.42;1.00;;;28.40;95.70;;;;;;5095139;28;20031;-69
2021/12/18 11:06:20;;;;;;;3.80;0.90;;;28.40;95.80;;;;;;5095119;28;20016;-69
2021/12/18 11:09:00;;;;;;;1.98;0.85;;;28.40;96.10;;;;;;5094881;28;20033;-69
2021/12/18 11:14:17;;;;;;;3.72;1.02;;;28.30;96.40;;;;;;5094990;28;20028;-69
2021/12/18 11:16:48;;;;;;;2.03;1.00;;;28.20;96.50;;;;;;5094126;28;20040;-70
2021/12/18 11:19:18;;;;;;;2.72;1.08;;;28.20;96.80;;;;;;5094483;28;20032;-70
2021/12/18 11:22:07;;;;;;;2.20;1.00;;;28.10;97.00;;;;;;5076533;28;20043;-70
2021/12/18 11:24:44;;;;;;;2.35;1.00;;;28.10;97.30;;;;;;5094201;28;20032;-69
2021/12/18 11:27:14;;;;;;;1.40;0.80;;;28.10;97.30;;;;;;5094462;28;20016;-70
2021/12/18 11:29:51;;;;;;;1.85;1.00;;;28.10;97.40;;;;;;5094825;28;20048;-69
2021/12/18 11:32:23;;;;;;;4.90;1.17;;;28.10;97.50;;;;;;5095087;28;20031;-69
2021/12/18 11:34:54;;;;;;;2.10;1.02;;;28.10;97.60;;;;;;5094483;28;20028;-69
2021/12/18 11:37:22;;;;;;;3.88;1.42;;;28.00;97.60;;;;;;5075634;28;20056;-69
2021/12/18 11:39:51;;;;;;;2.63;1.17;;;28.10;97.70;;;;;;5094169;28;20389;-69
2021/12/18 11:42:27;;;;;;;2.38;1.15;;;28.00;97.70;;;;;;5094309;28;20039;-69
2021/12/18 11:44:59;;;;;;;2.53;1.40;;;28.00;98.00;;;;;;5094041;28;20021;-69
2021/12/18 11:47:32;;;;;;;2.97;1.40;;;27.90;98.00;;;;;;5093717;28;20476;-69
2021/12/18 11:50:20;;;;;;;2.50;1.25;;;28.00;98.10;;;;;;5094241;28;20069;-70
2021/12/18 11:52:55;;;;;;;2.80;0.98;;;27.90;98.10;;;;;;5094358;28;20020;-70
2021/12/18 11:55:24;;;;;;;2.72;1.10;;;27.90;98.10;;;;;;5075913;28;20039;-69
2021/12/18 11:57:58;;;;;;;3.83;1.27;;;28.00;98.30;;;;;;5093835;28;20028;-69
2021/12/18 12:00:43;;;;;;;7.72;1.30;;;28.00;98.40;;;;;;5093919;28;20035;-69
2021/12/18 12:03:26;;;;;;;2.70;1.10;;;27.90;98.50;;;;;;5093941;28;20111;-69
2021/12/18 12:05:55;;;;;;;1.33;0.82;;;28.00;98.60;;;;;;5093995;28;20096;-69
2021/12/18 12:08:36;;;;;;;5.93;1.00;;;27.90;98.60;;;;;;5093609;28;20047;-69
2021/12/18 12:11:23;;;;;;;3.60;1.33;;;27.90;98.70;;;;;;5093801;28;20095;-70
2021/12/18 12:14:19;;;;;;;3.92;1.20;;;27.90;98.90;;;;;;5093969;28;20099;-70
2021/12/18 12:16:46;;;;;;;2.78;1.23;;;27.90;99.00;;;;;;5070937;28;20484;-70
2021/12/18 12:19:18;;;;;;;2.38;1.00;;;27.90;98.50;;;;;;5093619;28;20081;-70
2021/12/18 12:21:51;;;;;;;17.52;1.20;;;27.80;99.10;;;;;;5093691;28;20069;-68
2021/12/18 12:24:21;;;;;;;7.28;1.15;;;27.60;94.50;;;;;;5093748;28;20059;-68
2021/12/18 12:26:49;;;;;;;6.78;0.90;;;27.30;92.70;;;;;;5093749;28;20042;-70
2021/12/18 12:29:19;;;;;;;8.43;0.80;;;26.90;91.80;;;;;;5093647;28;20095;-70
2021/12/18 12:31:59;;;;;;;8.45;0.57;;;26.50;92.30;;;;;;5093584;28;20027;-70
2021/12/18 12:34:33;;;;;;;3.20;0.43;;;26.30;93.70;;;;;;5093912;28;20024;-68
2021/12/18 12:37:24;;;;;;;1.58;0.28;;;25.70;94.70;;;;;;5093408;28;20095;-71
2021/12/18 12:40:09;;;;;;;5.15;0.70;;;25.30;97.40;;;;;;5093689;28;20156;-74
2021/12/18 12:42:38;;;;;;;0.93;0.32;;;25.00;98.50;;;;;;5075604;28;20028;-69
2021/12/18 12:45:15;;;;;;;3.22;0.35;;;24.60;99.60;;;;;;5093630;28;20044;-70
2021/12/18 12:47:54;;;;;;;3.22;0.50;;;24.30;99.90;;;;;;5093102;28;20051;-70
2021/12/18 12:50:21;;;;;;;0.45;0.30;;;23.90;99.90;;;;;;5072795;28;20035;-69
2021/12/18 12:52:58;;;;;;;1.65;0.40;;;23.70;99.90;;;;;;5092940;28;20016;-70
2021/12/18 12:55:31;;;;;;;1.15;0.38;;;23.40;99.90;;;;;;5090730;28;20388;-70
2021/12/18 12:58:01;;;;;;;1.88;0.40;;;23.20;99.90;;;;;;5089193;28;20025;-68
2021/12/18 13:00:34;;;;;;;1.63;0.30;;;23.10;99.90;;;;;;5095095;28;20091;-69
2021/12/18 13:03:12;;;;;;;1.27;0.60;;;23.00;99.90;;;;;;5094412;28;20106;-70
2021/12/18 13:06:08;;;;;;;1.05;0.40;;;22.90;99.90;;;;;;5078207;28;20465;-71
2021/12/18 13:08:38;;;;;;;5.13;0.50;;;22.90;99.90;;;;;;5094270;28;20130;-69
2021/12/18 13:11:06;;;;;;;0.30;0.20;;;22.90;99.90;;;;;;5098517;28;20016;-70
2021/12/18 13:13:36;;;;;;;1.45;0.60;;;22.80;99.90;;;;;;5097460;28;20024;-69
2021/12/18 13:16:09;;;;;;;4.38;0.50;;;22.90;99.90;;;;;;5097358;28;20596;-69
2021/12/18 13:18:42;;;;;;;2.15;0.45;;;23.10;99.90;;;;;;5097130;28;20097;-69
2021/12/18 13:21:15;;;;;;;0.85;0.47;;;23.00;99.90;;;;;;5097259;28;20477;-70
2021/12/18 13:23:45;;;;;;;1.98;0.68;;;22.90;99.90;;;;;;5094517;28;20046;-71
2021/12/18 13:26:27;;;;;;;4.78;0.80;;;23.00;99.90;;;;;;5096307;28;20114;-69
2021/12/18 13:29:02;;;;;;;5.95;0.60;;;22.90;99.90;;;;;;5096378;28;20034;-68
2021/12/18 13:31:33;;;;;;;1.38;0.60;;;22.80;99.90;;;;;;5096402;28;20104;-69
2021/12/18 13:34:12;;;;;;;2.35;0.70;;;22.70;99.90;;;;;;5094218;28;20023;-69
2021/12/18 13:36:50;;;;;;;0.57;0.30;;;22.60;99.90;;;;;;5093814;28;20047;-69
2021/12/18 13:39:20;;;;;;;2.35;0.80;;;22.40;99.90;;;;;;5093474;28;20105;-68
2021/12/18 13:42:07;;;;;;;3.55;0.98;;;22.30;99.90;;;;;;5096210;28;20106;-68